Time;durP1;ratioP1;P1;durP2;ratioP2;P2;SDS_P1;SDS_P2;PMS_P1;PMS_P2;Temp;Humidity;BMP_temperature;BMP_pressure;BME280_temperature;BME280_humidity;BME280_pressure;Samples;Min_cycle;Max_cycle;Signal;HPM_P1;HPM_P2
2023/06/15 00:02:11;;;;;;;6.27;5.77;;;16.70;99.90;;;;;;6377068;27;20470;-66
2023/06/15 00:05:15;;;;;;;6.80;6.10;;;16.70;99.90;;;;;;6372240;27;20511;-66
2023/06/15 00:08:19;;;;;;;6.70;6.00;;;16.60;99.90;;;;;;6376753;27;20507;-66
2023/06/15 00:11:22;;;;;;;6.00;5.40;;;16.50;99.90;;;;;;6376322;27;20479;-66
2023/06/15 00:14:27;;;;;;;6.23;5.70;;;16.50;99.90;;;;;;6376337;27;20454;-66
2023/06/15 00:17:31;;;;;;;6.40;5.80;;;16.50;99.90;;;;;;6375018;27;20467;-66
2023/06/15 00:20:35;;;;;;;5.90;5.50;;;16.50;99.90;;;;;;6375661;27;20477;-66
2023/06/15 00:23:40;;;;;;;5.50;5.00;;;16.60;99.90;;;;;;6375622;27;20748;-66
2023/06/15 00:26:43;;;;;;;6.10;5.60;;;16.50;99.90;;;;;;6376410;27;20493;-66
2023/06/15 00:29:48;;;;;;;6.50;6.00;;;16.60;99.90;;;;;;6376183;27;20571;-66
2023/06/15 00:32:51;;;;;;;7.17;6.23;;;16.60;99.90;;;;;;6376727;27;20447;-66
2023/06/15 00:35:55;;;;;;;6.57;6.07;;;16.60;99.90;;;;;;6376195;27;20468;-66
2023/06/15 00:38:58;;;;;;;6.40;5.80;;;16.50;99.90;;;;;;6376226;27;20439;-66
2023/06/15 00:42:01;;;;;;;6.50;6.00;;;16.50;99.90;;;;;;6376267;27;20477;-67
2023/06/15 00:45:07;;;;;;;7.93;6.07;;;16.50;99.90;;;;;;6375773;27;20477;-66
2023/06/15 00:48:10;;;;;;;6.20;5.70;;;16.50;99.90;;;;;;6375838;27;20460;-66
2023/06/15 00:51:13;;;;;;;7.10;5.43;;;16.50;99.90;;;;;;6375540;27;20558;-66
2023/06/15 00:54:22;;;;;;;6.40;5.57;;;16.40;99.90;;;;;;6375791;27;20470;-67
2023/06/15 00:57:25;;;;;;;7.07;6.00;;;16.40;99.90;;;;;;6375704;27;20459;-66
2023/06/15 01:00:32;;;;;;;6.80;6.23;;;16.30;99.90;;;;;;6375872;27;20466;-66
2023/06/15 01:03:40;;;;;;;7.20;6.50;;;16.30;99.90;;;;;;6375702;27;20480;-66
2023/06/15 01:06:51;;;;;;;8.53;6.83;;;16.30;99.90;;;;;;6375572;27;20466;-66
2023/06/15 01:09:56;;;;;;;6.63;6.03;;;16.30;99.90;;;;;;6375147;27;20472;-66
2023/06/15 01:13:00;;;;;;;9.47;6.87;;;16.30;99.90;;;;;;6375616;27;20764;-66
2023/06/15 01:16:09;;;;;;;8.33;5.70;;;16.30;99.90;;;;;;6375186;27;20802;-66
2023/06/15 01:19:31;;;;;;;6.83;6.23;;;16.30;99.90;;;;;;6375067;27;20463;-66
2023/06/15 01:22:45;;;;;;;5.83;5.40;;;16.30;99.90;;;;;;6375164;27;20458;-66
2023/06/15 01:26:05;;;;;;;6.83;6.23;;;16.40;99.90;;;;;;6375403;27;20472;-66
2023/06/15 01:29:10;;;;;;;7.83;6.50;;;16.40;99.90;;;;;;6375097;27;20520;-66
2023/06/15 01:32:13;;;;;;;6.40;5.90;;;16.40;99.90;;;;;;6375005;27;20563;-66
2023/06/15 01:35:16;;;;;;;6.33;5.80;;;16.40;99.90;;;;;;6375453;27;20480;-66
2023/06/15 01:38:24;;;;;;;6.60;6.10;;;16.30;99.90;;;;;;6375112;27;20470;-66
2023/06/15 01:41:29;;;;;;;7.23;6.63;;;16.20;99.90;;;;;;6374793;27;20477;-66
2023/06/15 01:44:32;;;;;;;7.93;7.13;;;16.20;99.90;;;;;;6374993;27;20783;-66
2023/06/15 01:47:35;;;;;;;6.87;6.13;;;16.10;99.90;;;;;;6374957;27;20471;-67
2023/06/15 01:50:39;;;;;;;7.40;6.80;;;16.10;99.90;;;;;;6374572;27;20470;-66
2023/06/15 01:53:42;;;;;;;7.27;6.67;;;16.00;99.90;;;;;;6379722;27;20801;-66
2023/06/15 01:56:47;;;;;;;6.93;6.43;;;16.10;99.90;;;;;;6380006;27;20832;-66
2023/06/15 01:59:51;;;;;;;7.17;6.50;;;16.10;99.90;;;;;;6379959;27;20523;-65
2023/06/15 02:02:54;;;;;;;9.30;5.93;;;16.10;99.90;;;;;;6379905;27;20913;-66
2023/06/15 02:05:57;;;;;;;8.13;6.20;;;16.10;99.90;;;;;;6379858;27;20927;-66
2023/06/15 02:09:00;;;;;;;6.67;6.07;;;16.10;99.90;;;;;;6380105;27;20452;-66
2023/06/15 02:12:06;;;;;;;6.87;6.37;;;16.10;99.90;;;;;;6375544;27;20519;-66
2023/06/15 02:15:10;;;;;;;5.73;5.33;;;16.10;99.90;;;;;;6379756;27;20459;-66
2023/06/15 02:18:14;;;;;;;6.57;5.80;;;16.00;99.90;;;;;;6379171;27;20460;-66
2023/06/15 02:21:17;;;;;;;8.23;6.40;;;15.90;99.90;;;;;;6379479;27;20474;-66
2023/06/15 02:24:21;;;;;;;6.13;5.63;;;15.90;99.90;;;;;;6379753;27;20610;-66
2023/06/15 02:27:26;;;;;;;8.00;6.30;;;15.90;99.90;;;;;;6379030;27;20472;-66
2023/06/15 02:30:29;;;;;;;6.43;5.90;;;15.80;99.90;;;;;;6379405;27;20481;-65
2023/06/15 02:33:32;;;;;;;6.60;6.10;;;15.80;99.90;;;;;;6379215;27;20785;-66
2023/06/15 02:36:37;;;;;;;7.10;6.40;;;15.90;99.90;;;;;;6379316;27;20462;-65
2023/06/15 02:39:41;;;;;;;6.70;6.20;;;15.80;99.90;;;;;;6378832;27;20482;-65
2023/06/15 02:42:46;;;;;;;6.70;6.20;;;15.80;99.90;;;;;;6379174;27;20459;-66
2023/06/15 02:45:49;;;;;;;6.90;6.30;;;15.70;99.90;;;;;;6377669;27;20470;-66
2023/06/15 02:48:53;;;;;;;6.57;5.97;;;15.60;99.90;;;;;;6377313;28;20469;-66
2023/06/15 02:51:56;;;;;;;7.37;6.30;;;15.50;99.90;;;;;;6377067;28;20481;-66
2023/06/15 02:55:00;;;;;;;7.13;6.10;;;15.40;99.90;;;;;;6377197;28;20558;-66
2023/06/15 02:58:05;;;;;;;7.20;6.60;;;15.40;99.90;;;;;;6377057;28;20480;-66
2023/06/15 03:01:08;;;;;;;7.53;6.37;;;15.30;99.90;;;;;;6377221;28;20481;-66
2023/06/15 03:04:14;;;;;;;7.70;6.97;;;15.30;99.90;;;;;;6376766;27;20477;-66
2023/06/15 03:07:20;;;;;;;8.00;5.83;;;15.30;99.90;;;;;;6376930;28;20814;-66
2023/06/15 03:10:23;;;;;;;6.80;6.20;;;15.30;99.90;;;;;;6376865;28;20467;-66
2023/06/15 03:13:29;;;;;;;6.27;5.67;;;15.30;99.90;;;;;;6376394;28;20463;-66
2023/06/15 03:16:32;;;;;;;6.17;5.53;;;15.30;99.90;;;;;;6377106;28;20473;-65
2023/06/15 03:19:36;;;;;;;5.73;5.30;;;15.20;99.90;;;;;;6376647;28;20806;-65
2023/06/15 03:22:39;;;;;;;7.27;6.67;;;15.10;99.90;;;;;;6376712;28;20486;-66
2023/06/15 03:25:44;;;;;;;6.27;5.67;;;15.10;99.90;;;;;;6376643;28;20469;-66
2023/06/15 03:28:48;;;;;;;6.70;6.17;;;15.10;99.90;;;;;;6376554;28;20520;-66
2023/06/15 03:31:52;;;;;;;8.23;5.70;;;15.10;99.90;;;;;;6376365;28;20470;-65
2023/06/15 03:34:57;;;;;;;6.40;5.80;;;15.10;99.90;;;;;;6376264;28;20476;-66
2023/06/15 03:38:00;;;;;;;6.97;6.03;;;15.10;99.90;;;;;;6376161;28;20783;-66
2023/06/15 03:41:03;;;;;;;6.47;5.20;;;15.10;99.90;;;;;;6376209;28;20473;-65
2023/06/15 03:44:07;;;;;;;6.80;6.20;;;15.10;99.90;;;;;;6336189;27;1125978;-66
2023/06/15 03:47:11;;;;;;;6.83;6.23;;;15.10;99.90;;;;;;6377285;27;20459;-66
2023/06/15 03:50:14;;;;;;;6.07;5.60;;;15.20;99.90;;;;;;6377172;27;20466;-66
2023/06/15 03:53:17;;;;;;;7.20;6.50;;;15.20;99.90;;;;;;6377135;27;20489;-66
2023/06/15 03:56:20;;;;;;;6.50;6.00;;;15.20;99.90;;;;;;6377117;27;20477;-66
2023/06/15 03:59:25;;;;;;;7.03;6.43;;;15.10;99.90;;;;;;6376913;27;20481;-66
2023/06/15 04:02:28;;;;;;;8.70;5.90;;;15.10;99.90;;;;;;6376902;27;20478;-66
2023/06/15 04:05:31;;;;;;;6.47;5.87;;;15.20;99.90;;;;;;6376912;27;20474;-66
2023/06/15 04:08:35;;;;;;;6.67;6.03;;;15.20;99.90;;;;;;6376676;27;20796;-66
2023/06/15 04:11:38;;;;;;;7.37;6.67;;;15.30;99.90;;;;;;6376431;27;20965;-66
2023/06/15 04:14:43;;;;;;;7.27;6.40;;;15.40;99.90;;;;;;6375956;27;20480;-66
2023/06/15 04:17:48;;;;;;;6.17;5.70;;;15.50;99.90;;;;;;6376721;27;20600;-66
2023/06/15 04:20:52;;;;;;;6.73;6.03;;;15.60;99.90;;;;;;6376179;27;20566;-66
2023/06/15 04:23:56;;;;;;;8.73;6.33;;;15.70;99.90;;;;;;6376525;27;20442;-66
2023/06/15 04:27:00;;;;;;;7.90;5.67;;;15.60;99.90;;;;;;6376312;27;20766;-66
2023/06/15 04:30:06;;;;;;;7.33;6.60;;;15.70;99.90;;;;;;6376493;27;20496;-67
2023/06/15 04:33:13;;;;;;;7.73;6.10;;;15.80;99.90;;;;;;6375986;27;20472;-67
2023/06/15 04:36:16;;;;;;;8.17;6.10;;;16.00;99.90;;;;;;6376015;27;20968;-66
2023/06/15 04:39:24;;;;;;;7.23;6.53;;;16.00;99.90;;;;;;6375884;27;20476;-65
2023/06/15 04:42:32;;;;;;;9.40;7.13;;;16.10;99.90;;;;;;6376516;27;20463;-65
2023/06/15 04:45:37;;;;;;;6.90;6.30;;;16.20;99.90;;;;;;6375958;27;20561;-65
2023/06/15 04:48:43;;;;;;;7.73;6.13;;;16.30;99.90;;;;;;6376134;27;20798;-65
2023/06/15 04:51:48;;;;;;;8.33;6.60;;;16.30;99.90;;;;;;6376065;27;20954;-65
2023/06/15 04:54:53;;;;;;;8.10;6.60;;;16.30;99.90;;;;;;6376018;27;20481;-65
2023/06/15 04:57:56;;;;;;;8.20;6.00;;;16.50;99.90;;;;;;6375977;27;20804;-65
2023/06/15 05:01:01;;;;;;;7.50;6.70;;;16.70;99.90;;;;;;6376034;27;20466;-65
2023/06/15 05:04:05;;;;;;;6.57;5.97;;;17.00;99.90;;;;;;6375888;27;21012;-65
2023/06/15 05:07:08;;;;;;;6.83;6.23;;;17.20;99.90;;;;;;6375572;27;20466;-65
2023/06/15 05:10:11;;;;;;;7.27;6.60;;;17.20;99.90;;;;;;6375369;27;20470;-65
2023/06/15 05:13:15;;;;;;;7.10;6.50;;;17.20;99.90;;;;;;6375276;27;20481;-65
2023/06/15 05:16:19;;;;;;;8.80;7.17;;;17.10;99.90;;;;;;6375243;27;20922;-65
2023/06/15 05:19:23;;;;;;;7.20;6.60;;;17.20;99.90;;;;;;6375296;27;20470;-65
2023/06/15 05:22:26;;;;;;;7.03;6.30;;;17.10;99.90;;;;;;6375437;27;20458;-65
2023/06/15 05:25:29;;;;;;;6.60;6.00;;;17.10;99.90;;;;;;6375727;27;20485;-65
2023/06/15 05:28:33;;;;;;;7.17;6.47;;;17.10;99.90;;;;;;6375613;27;20572;-65
2023/06/15 05:31:37;;;;;;;8.87;6.67;;;17.30;99.90;;;;;;6374991;27;20917;-65
2023/06/15 05:34:41;;;;;;;5.90;5.30;;;17.40;99.90;;;;;;6375649;27;20761;-65
2023/06/15 05:37:44;;;;;;;7.67;6.13;;;17.60;99.90;;;;;;6375749;27;20538;-65
2023/06/15 05:40:50;;;;;;;6.23;5.60;;;17.60;99.90;;;;;;6376256;28;20787;-65
2023/06/15 05:43:53;;;;;;;6.93;6.20;;;17.70;99.90;;;;;;6375124;28;20477;-65
2023/06/15 05:46:58;;;;;;;6.43;5.93;;;17.80;99.90;;;;;;6375209;28;20611;-65
2023/06/15 05:50:01;;;;;;;9.00;6.87;;;18.00;99.90;;;;;;6374871;28;20961;-65
2023/06/15 05:53:04;;;;;;;9.77;6.23;;;18.00;99.90;;;;;;6374930;28;20491;-65
2023/06/15 05:56:07;;;;;;;6.77;6.07;;;18.00;99.90;;;;;;6374941;28;20234;-66
2023/06/15 05:59:14;;;;;;;7.90;6.87;;;18.10;99.90;;;;;;6375227;28;20471;-63
2023/06/15 06:02:36;;;;;;;6.83;6.13;;;18.10;99.90;;;;;;6367870;28;20540;-63
2023/06/15 06:05:39;;;;;;;8.87;6.53;;;18.30;99.90;;;;;;6359595;28;20479;-63
2023/06/15 06:08:42;;;;;;;5.93;5.43;;;18.30;99.90;;;;;;6356906;28;20478;-63
2023/06/15 06:11:47;;;;;;;6.00;5.50;;;18.40;99.90;;;;;;6362334;28;20225;-63
2023/06/15 06:14:51;;;;;;;8.67;6.30;;;18.50;99.90;;;;;;6363453;28;20213;-63
2023/06/15 06:17:55;;;;;;;9.27;6.43;;;18.50;99.90;;;;;;6361241;28;20439;-63
2023/06/15 06:21:11;;;;;;;6.63;5.90;;;18.60;99.90;;;;;;6357682;28;20666;-63
2023/06/15 06:24:14;;;;;;;7.40;5.83;;;18.70;99.90;;;;;;6362142;28;20276;-63
2023/06/15 06:27:18;;;;;;;6.60;6.00;;;18.70;99.90;;;;;;6357177;28;20237;-63
2023/06/15 06:30:21;;;;;;;6.60;6.00;;;18.80;99.90;;;;;;6359632;27;20587;-63
2023/06/15 06:33:25;;;;;;;7.20;6.23;;;18.90;99.90;;;;;;6354384;28;20561;-62
2023/06/15 06:36:29;;;;;;;7.43;5.60;;;19.00;99.90;;;;;;6361836;27;20681;-62
2023/06/15 06:39:32;;;;;;;7.23;6.00;;;19.20;99.90;;;;;;6375028;27;20302;-62
2023/06/15 06:42:36;;;;;;;7.60;6.90;;;19.40;99.90;;;;;;6378186;27;20251;-62
2023/06/15 06:45:39;;;;;;;6.40;5.50;;;19.50;99.90;;;;;;6392967;27;20236;-62
2023/06/15 06:48:44;;;;;;;8.43;6.10;;;19.70;99.90;;;;;;6404277;27;20227;-62
2023/06/15 06:51:47;;;;;;;6.40;5.80;;;19.90;99.90;;;;;;6404447;27;20697;-62
2023/06/15 06:54:50;;;;;;;8.33;6.37;;;20.20;99.90;;;;;;6404870;27;20235;-62
2023/06/15 06:57:53;;;;;;;6.90;6.27;;;20.30;99.90;;;;;;6404516;27;20224;-62
2023/06/15 07:00:57;;;;;;;6.63;5.40;;;20.40;99.90;;;;;;6404168;27;20232;-62
2023/06/15 07:04:02;;;;;;;6.47;5.87;;;20.50;99.90;;;;;;6396563;27;20247;-62
2023/06/15 07:07:05;;;;;;;7.83;5.90;;;20.70;99.90;;;;;;6404091;27;20257;-62
2023/06/15 07:10:09;;;;;;;7.73;6.70;;;21.00;99.90;;;;;;6404665;27;20246;-62
2023/06/15 07:13:13;;;;;;;7.10;6.43;;;21.30;99.90;;;;;;6404534;27;20234;-62
2023/06/15 07:16:16;;;;;;;7.77;6.33;;;21.50;99.90;;;;;;6404653;27;20261;-62
2023/06/15 07:19:20;;;;;;;6.40;5.83;;;21.50;99.70;;;;;;6404839;27;20230;-63
2023/06/15 07:22:24;;;;;;;9.27;6.40;;;21.50;99.40;;;;;;6404987;27;20667;-62
2023/06/15 07:25:27;;;;;;;6.50;5.90;;;21.40;99.00;;;;;;6404386;27;20265;-62
2023/06/15 07:28:31;;;;;;;6.47;5.90;;;21.20;98.70;;;;;;6403941;27;20548;-62
2023/06/15 07:31:34;;;;;;;6.60;6.00;;;21.10;98.60;;;;;;6403786;27;20224;-62
2023/06/15 07:34:39;;;;;;;6.67;6.07;;;20.80;98.70;;;;;;6403794;27;20223;-62
2023/06/15 07:37:42;;;;;;;6.83;6.23;;;20.60;99.20;;;;;;6403559;27;20235;-62
2023/06/15 07:40:45;;;;;;;6.63;6.03;;;20.50;99.50;;;;;;6403885;27;20236;-62
2023/06/15 07:43:49;;;;;;;6.17;5.57;;;20.40;99.40;;;;;;6403494;27;20305;-62
2023/06/15 07:46:53;;;;;;;5.60;5.10;;;20.30;99.20;;;;;;6403389;27;20224;-62
2023/06/15 07:49:58;;;;;;;8.50;5.73;;;20.30;97.80;;;;;;6401986;27;20316;-63
2023/06/15 07:53:01;;;;;;;5.80;5.37;;;20.30;97.30;;;;;;6403132;27;20440;-62
2023/06/15 07:56:05;;;;;;;7.37;6.50;;;20.30;97.20;;;;;;6403235;27;20224;-62
2023/06/15 07:59:08;;;;;;;6.97;6.13;;;20.30;97.20;;;;;;6402780;27;20242;-62
2023/06/15 08:02:11;;;;;;;5.77;5.27;;;20.40;96.80;;;;;;6403032;27;20706;-62
2023/06/15 08:05:16;;;;;;;6.50;6.00;;;20.50;96.60;;;;;;6402982;27;20282;-62
2023/06/15 08:08:19;;;;;;;5.63;5.10;;;20.50;95.90;;;;;;6402758;27;20225;-62
2023/06/15 08:11:23;;;;;;;5.30;4.80;;;20.60;95.70;;;;;;6402820;27;20232;-62
2023/06/15 08:14:27;;;;;;;8.80;5.57;;;20.60;95.50;;;;;;6403460;27;20220;-62
2023/06/15 08:17:30;;;;;;;6.07;5.47;;;20.70;95.50;;;;;;6394632;27;20551;-62
2023/06/15 08:20:35;;;;;;;6.90;6.17;;;20.80;95.60;;;;;;6394026;27;20288;-62
2023/06/15 08:23:38;;;;;;;6.70;6.10;;;20.70;95.70;;;;;;6392409;27;20216;-62
2023/06/15 08:26:42;;;;;;;6.87;6.27;;;20.80;95.90;;;;;;6390700;27;20337;-62
2023/06/15 08:29:48;;;;;;;7.43;6.73;;;20.90;95.50;;;;;;6373465;27;20293;-62
2023/06/15 08:32:51;;;;;;;6.73;6.13;;;21.00;95.10;;;;;;6357798;27;20641;-62
2023/06/15 08:35:56;;;;;;;6.60;6.00;;;21.00;94.90;;;;;;6351666;28;20218;-62
2023/06/15 08:39:00;;;;;;;6.83;6.10;;;21.10;94.60;;;;;;6372340;27;20346;-62
2023/06/15 08:42:04;;;;;;;6.87;6.27;;;21.40;94.70;;;;;;6376527;27;20541;-62
2023/06/15 08:45:10;;;;;;;8.70;5.60;;;21.60;94.00;;;;;;6376270;27;20233;-62
2023/06/15 08:48:16;;;;;;;6.33;5.73;;;21.80;93.40;;;;;;6378038;27;20252;-62
2023/06/15 08:51:23;;;;;;;6.47;5.83;;;22.20;92.80;;;;;;6400821;27;20599;-62
2023/06/15 08:54:30;;;;;;;6.07;5.57;;;22.40;92.10;;;;;;6400790;27;20257;-62
2023/06/15 08:57:35;;;;;;;6.53;5.93;;;22.70;91.70;;;;;;6402835;27;20311;-62
2023/06/15 09:00:38;;;;;;;6.60;6.10;;;23.10;91.30;;;;;;6393797;27;20546;-62
2023/06/15 09:03:42;;;;;;;6.33;5.73;;;23.20;90.50;;;;;;6389657;27;20235;-62
2023/06/15 09:06:47;;;;;;;5.87;5.40;;;23.60;90.20;;;;;;6388627;27;20232;-62
2023/06/15 09:10:16;;;;;;;9.80;6.57;;;24.00;90.20;;;;;;6382295;27;20610;-62
2023/06/15 09:13:21;;;;;;;6.70;6.10;;;24.00;87.80;;;;;;6383943;27;20239;-62
2023/06/15 09:16:24;;;;;;;7.03;6.33;;;24.30;86.50;;;;;;6383238;27;20230;-62
2023/06/15 09:19:37;;;;;;;6.10;5.50;;;24.40;86.10;;;;;;6391687;27;20216;-63
2023/06/15 09:22:43;;;;;;;6.13;5.63;;;24.60;84.20;;;;;;6379620;27;20226;-62
2023/06/15 09:25:51;;;;;;;7.50;6.00;;;24.40;78.90;;;;;;6374625;27;20302;-63
2023/06/15 09:28:56;;;;;;;6.00;5.53;;;24.60;81.10;;;;;;6375244;27;20229;-63
2023/06/15 09:32:02;;;;;;;7.27;6.27;;;24.60;81.10;;;;;;6374370;27;20228;-63
2023/06/15 09:35:08;;;;;;;5.70;5.30;;;24.80;81.20;;;;;;6375147;27;20268;-63
2023/06/15 09:38:13;;;;;;;6.17;5.67;;;24.80;79.50;;;;;;6370688;27;20232;-63
2023/06/15 09:41:16;;;;;;;6.80;6.20;;;24.50;78.70;;;;;;6375118;27;20244;-63
2023/06/15 09:44:21;;;;;;;6.13;5.53;;;24.30;79.50;;;;;;6374637;28;20358;-63
2023/06/15 09:47:29;;;;;;;5.83;5.43;;;24.30;80.00;;;;;;6374621;28;20221;-63
2023/06/15 09:50:32;;;;;;;6.10;5.60;;;24.20;80.60;;;;;;6374280;27;20651;-63
2023/06/15 09:53:39;;;;;;;6.30;5.80;;;24.10;79.80;;;;;;6374723;28;20303;-63
2023/06/15 09:56:43;;;;;;;7.80;7.10;;;23.90;79.70;;;;;;6374596;28;20237;-63
2023/06/15 09:59:47;;;;;;;7.33;6.73;;;23.80;80.30;;;;;;6374678;28;20244;-63
2023/06/15 10:02:53;;;;;;;8.47;7.67;;;23.90;81.50;;;;;;6374285;28;20232;-63
2023/06/15 10:06:03;;;;;;;5.83;5.20;;;24.10;81.70;;;;;;6374753;27;20237;-63
2023/06/15 10:09:09;;;;;;;8.07;6.37;;;24.20;79.50;;;;;;6374649;28;20402;-63
2023/06/15 10:12:15;;;;;;;5.73;5.23;;;24.20;78.00;;;;;;6374973;27;20537;-63
2023/06/15 10:15:20;;;;;;;5.23;4.63;;;24.10;77.30;;;;;;6379439;27;20538;-63
2023/06/15 10:18:26;;;;;;;7.43;6.50;;;24.00;78.70;;;;;;6379626;27;20304;-63
2023/06/15 10:21:30;;;;;;;6.10;5.50;;;24.20;78.50;;;;;;6379301;27;20239;-64
2023/06/15 10:24:36;;;;;;;6.40;5.80;;;24.30;75.40;;;;;;6379804;27;20231;-62
2023/06/15 10:27:40;;;;;;;5.63;5.13;;;24.30;75.10;;;;;;6379322;27;20278;-62
2023/06/15 10:30:49;;;;;;;7.07;6.30;;;24.40;75.30;;;;;;6379214;27;20315;-62
2023/06/15 10:33:57;;;;;;;5.97;5.47;;;24.40;74.40;;;;;;6379246;27;20244;-62
2023/06/15 10:37:09;;;;;;;6.57;6.03;;;24.10;75.70;;;;;;6379007;27;20236;-62
2023/06/15 10:40:19;;;;;;;7.53;5.37;;;24.20;74.90;;;;;;6378743;27;20603;-62
2023/06/15 10:43:27;;;;;;;6.70;6.10;;;24.40;75.50;;;;;;6374301;27;20359;-63
2023/06/15 10:46:31;;;;;;;8.67;6.07;;;24.50;75.20;;;;;;6378764;27;20591;-62
2023/06/15 10:49:35;;;;;;;5.70;5.20;;;24.40;76.60;;;;;;6378762;27;20232;-62
2023/06/15 10:52:38;;;;;;;5.87;5.37;;;24.30;76.40;;;;;;6378810;27;20721;-63
2023/06/15 10:55:46;;;;;;;6.07;5.60;;;24.70;77.40;;;;;;6378315;27;20317;-62
2023/06/15 10:58:54;;;;;;;6.00;5.50;;;24.70;73.40;;;;;;6378392;27;20231;-62
2023/06/15 11:01:57;;;;;;;5.80;5.30;;;24.70;73.00;;;;;;6378301;27;20228;-63
2023/06/15 11:05:02;;;;;;;5.80;5.30;;;24.70;74.00;;;;;;6378235;27;20228;-62
2023/06/15 11:08:17;;;;;;;6.03;4.93;;;24.90;74.30;;;;;;6378277;27;20224;-62
2023/06/15 11:11:33;;;;;;;6.00;5.50;;;25.20;73.50;;;;;;6378078;27;20232;-62
2023/06/15 11:14:37;;;;;;;5.80;5.23;;;25.50;72.90;;;;;;6378562;27;20244;-63
2023/06/15 11:17:57;;;;;;;5.97;5.40;;;25.40;72.40;;;;;;6377987;27;20315;-62
2023/06/15 11:21:02;;;;;;;6.33;5.73;;;24.90;72.60;;;;;;6377605;27;20660;-63
2023/06/15 11:24:05;;;;;;;5.70;5.20;;;25.00;74.10;;;;;;6377701;27;20204;-63
2023/06/15 11:27:12;;;;;;;5.90;5.40;;;25.40;73.80;;;;;;6377938;27;20632;-62
2023/06/15 11:30:16;;;;;;;6.50;6.00;;;25.50;72.30;;;;;;6378140;27;20235;-62
2023/06/15 11:33:27;;;;;;;6.40;5.90;;;25.80;71.60;;;;;;6377937;27;20568;-62
2023/06/15 11:36:30;;;;;;;5.70;5.30;;;25.90;71.20;;;;;;6377736;27;20317;-62
2023/06/15 11:39:34;;;;;;;6.13;5.60;;;25.90;70.50;;;;;;6377108;27;20672;-62
2023/06/15 11:42:39;;;;;;;5.83;5.33;;;26.00;69.10;;;;;;6377381;27;20224;-63
2023/06/15 11:45:46;;;;;;;5.87;5.37;;;26.20;68.30;;;;;;6377079;27;20236;-62
2023/06/15 11:48:50;;;;;;;7.20;5.57;;;26.20;68.40;;;;;;6377654;27;20223;-62
2023/06/15 11:51:57;;;;;;;6.20;5.70;;;26.10;68.00;;;;;;6377391;27;20228;-62
2023/06/15 11:55:08;;;;;;;7.27;6.67;;;26.00;67.20;;;;;;6376994;27;20224;-62
2023/06/15 11:58:13;;;;;;;5.67;5.20;;;25.90;67.60;;;;;;6376993;27;20311;-62
2023/06/15 12:01:17;;;;;;;6.07;5.67;;;25.70;66.60;;;;;;6377801;27;20228;-62
2023/06/15 12:04:20;;;;;;;5.53;5.10;;;25.70;65.40;;;;;;6376854;27;20316;-63
2023/06/15 12:07:26;;;;;;;5.63;5.23;;;25.70;67.40;;;;;;6376887;27;20244;-62
2023/06/15 12:10:42;;;;;;;5.43;5.03;;;25.80;66.80;;;;;;6377246;27;20269;-63
2023/06/15 12:13:47;;;;;;;5.83;5.33;;;25.70;66.80;;;;;;6360920;27;20564;-62
2023/06/15 12:16:52;;;;;;;5.43;5.03;;;25.80;66.70;;;;;;6358936;27;20220;-63
2023/06/15 12:20:00;;;;;;;5.70;5.20;;;25.80;65.10;;;;;;6375826;27;20316;-62
2023/06/15 12:23:04;;;;;;;5.60;5.10;;;25.70;64.40;;;;;;6351094;27;20300;-63
2023/06/15 12:26:08;;;;;;;6.07;5.57;;;25.50;67.30;;;;;;6350779;28;20303;-63
2023/06/15 12:29:16;;;;;;;5.90;5.50;;;25.60;68.10;;;;;;6355128;27;20212;-62
2023/06/15 12:32:23;;;;;;;5.93;5.43;;;25.90;66.70;;;;;;6375882;27;20556;-61
2023/06/15 12:35:28;;;;;;;5.57;5.17;;;26.20;65.60;;;;;;6375340;27;20313;-62
2023/06/15 12:38:32;;;;;;;5.40;5.00;;;26.50;63.80;;;;;;6376135;27;20273;-62
2023/06/15 12:41:39;;;;;;;6.17;5.67;;;26.40;62.20;;;;;;6375920;27;20228;-61
2023/06/15 12:44:44;;;;;;;6.00;5.60;;;26.50;61.40;;;;;;6375900;27;20254;-63
2023/06/15 12:47:47;;;;;;;6.00;5.50;;;26.80;61.40;;;;;;6358082;27;20213;-62
2023/06/15 12:50:51;;;;;;;5.70;5.30;;;26.90;61.20;;;;;;6349791;28;20232;-61
2023/06/15 12:53:56;;;;;;;5.47;5.07;;;26.60;62.30;;;;;;6340089;28;20235;-61
2023/06/15 12:56:59;;;;;;;6.00;5.50;;;26.80;61.40;;;;;;6348973;28;20239;-61
2023/06/15 13:00:05;;;;;;;5.83;5.33;;;27.00;59.50;;;;;;6349792;28;20748;-61
2023/06/15 13:03:09;;;;;;;6.10;5.60;;;27.10;59.90;;;;;;6350223;28;20287;-61
2023/06/15 13:06:13;;;;;;;5.97;5.40;;;27.10;59.60;;;;;;6349830;28;20204;-61
2023/06/15 13:09:16;;;;;;;5.57;5.07;;;26.90;59.70;;;;;;6361183;27;20407;-59
2023/06/15 13:12:20;;;;;;;6.10;5.60;;;26.70;59.60;;;;;;6360070;27;20670;-59
2023/06/15 13:15:25;;;;;;;6.00;5.60;;;26.50;60.00;;;;;;6349519;28;20366;-59
2023/06/15 13:18:28;;;;;;;5.80;5.40;;;26.30;60.50;;;;;;6375627;27;20251;-59
2023/06/15 13:21:31;;;;;;;5.90;4.80;;;26.10;61.20;;;;;;6360671;27;20286;-59
2023/06/15 13:24:36;;;;;;;6.53;5.93;;;25.80;62.10;;;;;;6355311;27;20611;-59
2023/06/15 13:27:40;;;;;;;6.50;5.90;;;25.50;61.30;;;;;;6375460;27;20224;-59
2023/06/15 13:30:44;;;;;;;6.40;5.67;;;25.30;63.40;;;;;;6375258;27;20243;-60
2023/06/15 13:33:48;;;;;;;6.23;5.70;;;25.20;62.70;;;;;;6374489;27;20535;-60
2023/06/15 13:36:51;;;;;;;5.43;5.03;;;25.30;63.70;;;;;;6374588;27;20229;-60
2023/06/15 13:39:55;;;;;;;6.47;5.93;;;25.30;63.50;;;;;;6374547;27;20224;-60
2023/06/15 13:42:58;;;;;;;12.17;6.03;;;25.30;63.80;;;;;;6357734;28;20224;-60
2023/06/15 13:46:02;;;;;;;6.43;5.83;;;25.40;64.10;;;;;;6348982;28;20239;-60
2023/06/15 13:49:06;;;;;;;5.80;5.30;;;25.50;63.60;;;;;;6354179;28;20236;-60
2023/06/15 13:52:11;;;;;;;6.40;5.77;;;25.50;63.30;;;;;;6354568;28;20239;-60
2023/06/15 13:55:14;;;;;;;6.13;5.67;;;25.80;62.90;;;;;;6349715;28;20225;-60
2023/06/15 13:58:17;;;;;;;6.77;6.27;;;25.90;62.30;;;;;;6354449;28;20676;-61
2023/06/15 14:01:23;;;;;;;6.47;5.73;;;26.20;62.20;;;;;;6353623;28;20228;-62
2023/06/15 14:04:26;;;;;;;6.50;6.00;;;26.40;61.60;;;;;;6353775;28;20676;-61
2023/06/15 14:07:30;;;;;;;7.40;6.67;;;26.60;62.70;;;;;;6353786;28;20220;-61
2023/06/15 14:10:33;;;;;;;7.00;6.40;;;26.70;61.30;;;;;;6378791;27;20228;-61
2023/06/15 14:13:37;;;;;;;7.60;6.67;;;26.70;61.00;;;;;;6379097;27;20257;-61
2023/06/15 14:16:42;;;;;;;7.30;6.40;;;26.70;60.10;;;;;;6379825;27;20224;-60
2023/06/15 14:19:46;;;;;;;7.60;6.33;;;26.70;63.30;;;;;;6379540;27;20224;-60
2023/06/15 14:22:50;;;;;;;6.40;5.20;;;26.50;63.40;;;;;;6354233;28;20235;-60
2023/06/15 14:25:53;;;;;;;6.03;5.63;;;26.30;63.70;;;;;;6354101;28;20229;-61
2023/06/15 14:28:56;;;;;;;7.50;6.80;;;26.20;63.90;;;;;;6354127;28;20232;-60
2023/06/15 14:32:01;;;;;;;7.10;6.50;;;26.10;63.60;;;;;;6353646;28;20668;-61
2023/06/15 14:35:05;;;;;;;7.63;6.93;;;25.90;63.80;;;;;;6353985;28;20373;-62
2023/06/15 14:38:08;;;;;;;6.10;5.60;;;25.70;64.40;;;;;;6353547;28;20315;-61
2023/06/15 14:41:11;;;;;;;7.47;6.70;;;25.50;64.80;;;;;;6353697;28;20229;-63
2023/06/15 14:44:15;;;;;;;7.00;6.40;;;25.40;66.30;;;;;;6353306;28;20239;-62
2023/06/15 14:47:20;;;;;;;8.90;6.00;;;25.30;66.30;;;;;;6353442;28;20244;-62
2023/06/15 14:50:23;;;;;;;6.10;5.60;;;25.20;66.90;;;;;;6353074;28;20338;-62
2023/06/15 14:53:27;;;;;;;6.80;6.30;;;25.20;68.20;;;;;;6353323;28;20282;-61
2023/06/15 14:56:30;;;;;;;6.77;6.27;;;25.30;67.60;;;;;;6353077;28;20240;-61
2023/06/15 14:59:34;;;;;;;7.20;6.70;;;25.40;66.30;;;;;;6352974;28;20385;-62
2023/06/15 15:02:38;;;;;;;7.47;6.80;;;25.50;66.20;;;;;;6348680;28;20232;-62
2023/06/15 15:05:42;;;;;;;6.33;5.83;;;25.60;65.20;;;;;;6353238;28;20373;-62
2023/06/15 15:08:45;;;;;;;6.60;6.10;;;25.60;64.60;;;;;;6364354;27;20232;-62
2023/06/15 15:11:48;;;;;;;7.13;6.50;;;25.60;64.60;;;;;;6378128;27;20307;-62
2023/06/15 15:14:52;;;;;;;6.53;5.70;;;25.60;65.20;;;;;;6362358;27;20229;-62
2023/06/15 15:17:56;;;;;;;6.87;6.10;;;25.80;64.60;;;;;;6352403;28;20243;-61
2023/06/15 15:21:00;;;;;;;7.30;6.60;;;25.80;64.80;;;;;;6352345;28;20225;-61
2023/06/15 15:24:04;;;;;;;6.63;6.13;;;25.90;64.90;;;;;;6352581;28;20215;-62
2023/06/15 15:27:08;;;;;;;7.33;6.83;;;25.80;65.60;;;;;;6351908;28;20599;-62
2023/06/15 15:30:12;;;;;;;7.33;6.40;;;25.70;65.90;;;;;;6352282;28;20221;-62
2023/06/15 15:33:16;;;;;;;6.97;6.40;;;25.50;66.30;;;;;;6352360;28;20205;-61
2023/06/15 15:36:20;;;;;;;6.67;6.07;;;25.50;66.00;;;;;;6352167;28;20228;-61
2023/06/15 15:39:23;;;;;;;6.90;6.40;;;25.30;66.50;;;;;;6352069;28;20239;-61
2023/06/15 15:42:26;;;;;;;6.63;6.13;;;25.10;65.90;;;;;;6351867;28;20236;-61
2023/06/15 15:45:30;;;;;;;9.47;6.27;;;25.10;65.00;;;;;;6351964;28;20243;-60
2023/06/15 15:48:35;;;;;;;7.10;6.60;;;25.10;65.40;;;;;;6352153;27;20233;-61
2023/06/15 15:51:38;;;;;;;6.17;5.77;;;25.00;65.00;;;;;;6386496;27;20230;-61
2023/06/15 15:54:41;;;;;;;6.90;6.30;;;24.80;65.80;;;;;;6382268;27;20230;-60
2023/06/15 15:57:44;;;;;;;7.63;6.37;;;24.80;65.90;;;;;;6384355;27;20234;-60
2023/06/15 16:00:48;;;;;;;5.90;5.50;;;24.80;65.70;;;;;;6402753;27;20695;-61